Time;durP1;ratioP1;P1;durP2;ratioP2;P2;SDS_P1;SDS_P2;PMS_P1;PMS_P2;Temp;Humidity;BMP_temperature;BMP_pressure;BME280_temperature;BME280_humidity;BME280_pressure;Samples;Min_cycle;Max_cycle;Signal;HPM_P1;HPM_P2
2023/08/03 00:00:55;;;;;;;2.20;0.90;;;;;;;16.24;100.00;98803.06;4985280;28;20780;-83
2023/08/03 00:03:22;;;;;;;3.35;0.98;;;;;;;16.20;100.00;98804.31;4983009;28;20056;-82
2023/08/03 00:05:49;;;;;;;1.50;0.70;;;;;;;16.22;100.00;98823.63;4984530;28;20038;-82
2023/08/03 00:08:17;;;;;;;2.10;0.75;;;;;;;16.19;100.00;98822.06;4981045;28;20045;-82
2023/08/03 00:10:44;;;;;;;2.97;0.80;;;;;;;16.17;100.00;98828.50;4967546;28;20054;-82
2023/08/03 00:13:11;;;;;;;2.15;0.73;;;;;;;16.14;100.00;98830.44;4983948;28;20098;-81
2023/08/03 00:15:39;;;;;;;1.85;0.70;;;;;;;16.18;100.00;98831.00;4977254;28;20538;-81
2023/08/03 00:18:06;;;;;;;1.80;0.60;;;;;;;16.19;100.00;98832.69;4949682;28;20074;-81
2023/08/03 00:20:33;;;;;;;2.30;0.98;;;;;;;16.20;100.00;98830.91;4965771;28;20057;-80
2023/08/03 00:23:00;;;;;;;2.53;0.80;;;;;;;16.22;100.00;98839.59;4957832;28;20058;-80
2023/08/03 00:25:30;;;;;;;2.80;0.80;;;;;;;16.23;100.00;98838.59;4986322;28;20073;-84
2023/08/03 00:27:57;;;;;;;2.53;0.80;;;;;;;16.24;100.00;98834.97;4981265;28;20109;-83
2023/08/03 00:30:24;;;;;;;2.25;0.63;;;;;;;16.24;100.00;98845.59;4998339;28;20108;-88
2023/08/03 00:32:51;;;;;;;2.92;0.90;;;;;;;16.25;100.00;98848.13;4969455;28;20035;-85
2023/08/03 00:35:19;;;;;;;2.22;0.75;;;;;;;16.25;100.00;98844.63;4971658;28;20097;-84
2023/08/03 00:37:46;;;;;;;2.95;0.90;;;;;;;16.25;100.00;98848.13;4981531;28;20129;-84
2023/08/03 00:40:14;;;;;;;1.98;1.00;;;;;;;16.28;100.00;98863.81;4967699;28;20057;-83
2023/08/03 00:42:41;;;;;;;3.00;1.00;;;;;;;16.30;100.00;98851.22;4988692;28;20053;-83
2023/08/03 00:45:11;;;;;;;4.10;0.90;;;;;;;16.32;100.00;98860.88;4988000;28;20061;-82
2023/08/03 00:47:39;;;;;;;3.72;0.88;;;;;;;16.33;100.00;98858.09;4969349;28;20167;-83
2023/08/03 00:50:08;;;;;;;3.83;1.05;;;;;;;16.33;100.00;98867.91;4985622;28;20042;-85
2023/08/03 00:52:37;;;;;;;3.40;1.02;;;;;;;16.35;100.00;98872.09;4990351;28;20517;-89
2023/08/03 00:55:05;;;;;;;4.55;1.30;;;;;;;16.36;100.00;98887.09;4986001;28;20050;-86
2023/08/03 00:57:32;;;;;;;4.30;1.25;;;;;;;16.35;100.00;98884.56;4987280;28;20125;-86
2023/08/03 00:59:59;;;;;;;6.15;1.50;;;;;;;16.35;100.00;98890.72;4968131;28;20072;-83
2023/08/03 01:02:26;;;;;;;7.38;1.90;;;;;;;16.34;100.00;98896.16;4963196;28;20046;-84
2023/08/03 01:04:54;;;;;;;6.53;1.92;;;;;;;16.33;100.00;98905.13;4981418;28;20101;-84
2023/08/03 01:07:23;;;;;;;4.60;1.98;;;;;;;16.35;100.00;98904.00;4983906;28;20065;-84
2023/08/03 01:09:50;;;;;;;5.15;2.47;;;;;;;16.35;100.00;98914.66;4949654;28;20062;-82
2023/08/03 01:12:18;;;;;;;5.57;2.20;;;;;;;16.37;100.00;98919.84;4981755;28;20038;-80
2023/08/03 01:14:46;;;;;;;5.75;2.50;;;;;;;16.37;100.00;98919.84;4988684;28;20104;-82
2023/08/03 01:17:14;;;;;;;5.88;2.40;;;;;;;16.40;100.00;98914.25;4972310;28;20057;-79
2023/08/03 01:19:41;;;;;;;8.20;2.95;;;;;;;16.39;100.00;98925.84;4989321;28;20038;-81
2023/08/03 01:22:12;;;;;;;9.88;2.92;;;;;;;16.41;100.00;98930.09;4990747;28;20049;-81
2023/08/03 01:24:40;;;;;;;6.75;2.83;;;;;;;16.40;100.00;98935.53;4986158;28;20049;-83
2023/08/03 01:27:07;;;;;;;6.25;2.78;;;;;;;16.40;100.00;98952.34;4991238;28;20047;-82
2023/08/03 01:29:34;;;;;;;8.32;3.20;;;;;;;16.41;100.00;98942.53;4971841;28;20064;-83
2023/08/03 01:32:02;;;;;;;5.53;2.72;;;;;;;16.41;100.00;98943.38;4988554;28;20129;-82
2023/08/03 01:34:29;;;;;;;7.10;2.50;;;;;;;16.42;100.00;98955.72;4972177;28;20129;-82
2023/08/03 01:36:56;;;;;;;3.85;2.45;;;;;;;16.42;100.00;98961.03;4969356;28;20053;-81
2023/08/03 01:39:27;;;;;;;6.38;2.38;;;;;;;16.44;100.00;98953.75;4971875;28;20042;-85
2023/08/03 01:41:55;;;;;;;4.32;2.42;;;;;;;16.45;100.00;98962.59;4978202;28;20061;-82
2023/08/03 01:44:29;;;;;;;4.18;2.40;;;;;;;16.44;100.00;98968.88;4970563;28;20047;-82
2023/08/03 01:46:59;;;;;;;5.15;2.80;;;;;;;16.45;100.00;98965.25;4986793;28;20119;-82
2023/08/03 01:49:29;;;;;;;5.53;3.08;;;;;;;16.45;100.00;98976.72;4964684;28;20164;-81
2023/08/03 01:51:57;;;;;;;5.30;3.15;;;;;;;16.44;100.00;98977.69;4964637;28;20047;-82
2023/08/03 01:54:25;;;;;;;7.60;4.03;;;;;;;16.45;100.00;98968.72;4985234;28;20067;-82
2023/08/03 01:56:55;;;;;;;8.00;3.72;;;;;;;16.46;100.00;98975.75;4968977;28;20035;-86
2023/08/03 01:59:23;;;;;;;7.97;4.03;;;;;;;16.44;100.00;98988.31;4968262;28;20132;-84
2023/08/03 02:01:50;;;;;;;6.13;4.00;;;;;;;16.40;100.00;98989.56;4952050;28;20121;-81
2023/08/03 02:04:19;;;;;;;9.50;4.28;;;;;;;16.37;100.00;98991.66;4963956;28;20135;-82
2023/08/03 02:06:56;;;;;;;5.90;3.78;;;;;;;16.35;100.00;98991.75;4950134;28;20042;-82
2023/08/03 02:09:23;;;;;;;7.93;4.03;;;;;;;16.30;100.00;98981.50;4978908;28;20035;-81
2023/08/03 02:11:50;;;;;;;7.82;3.90;;;;;;;16.29;100.00;98981.66;4962292;28;20039;-82
2023/08/03 02:14:17;;;;;;;8.55;3.83;;;;;;;16.27;100.00;98996.88;4961367;28;20065;-80
2023/08/03 02:16:45;;;;;;;8.45;3.63;;;;;;;16.27;100.00;98994.22;4953229;28;20051;-81
2023/08/03 02:19:12;;;;;;;8.98;3.30;;;;;;;16.28;100.00;99007.38;4969201;28;20047;-80
2023/08/03 02:21:39;;;;;;;5.13;3.00;;;;;;;16.29;100.00;99006.41;4955419;28;20058;-81
2023/08/03 02:24:07;;;;;;;6.20;3.28;;;;;;;16.29;100.00;99006.41;4980580;28;20134;-77
2023/08/03 02:26:34;;;;;;;6.07;2.72;;;;;;;16.29;100.00;98998.44;4970964;28;20083;-77
2023/08/03 02:29:01;;;;;;;6.05;2.65;;;;;;;16.30;100.00;99002.78;4970412;28;20047;-77
2023/08/03 02:31:28;;;;;;;8.13;2.47;;;;;;;16.30;100.00;98999.28;4947668;28;20038;-77
2023/08/03 02:33:56;;;;;;;5.00;2.30;;;;;;;16.30;100.00;98993.97;4966784;28;20480;-77
2023/08/03 02:36:31;;;;;;;6.45;1.92;;;;;;;16.30;100.00;98994.81;4958749;28;20054;-77
2023/08/03 02:39:04;;;;;;;4.00;1.70;;;;;;;16.33;100.00;99001.66;4982552;28;20039;-78
2023/08/03 02:41:33;;;;;;;5.18;1.83;;;;;;;16.32;100.00;99002.66;4966708;28;20383;-78
2023/08/03 02:44:03;;;;;;;6.00;1.70;;;;;;;16.34;100.00;99002.53;4984240;28;20447;-77
2023/08/03 02:46:32;;;;;;;6.43;1.40;;;;;;;16.35;100.00;99015.69;4965566;28;20047;-78
2023/08/03 02:49:00;;;;;;;6.43;1.58;;;;;;;16.37;100.00;99002.28;4965227;28;20053;-78
2023/08/03 02:51:30;;;;;;;4.47;1.75;;;;;;;16.38;100.00;99011.94;4965466;28;20039;-77
2023/08/03 02:53:57;;;;;;;4.40;2.10;;;;;;;16.38;100.00;99003.97;4967061;28;20049;-80
2023/08/03 02:56:28;;;;;;;7.53;2.15;;;;;;;16.38;100.00;99007.47;4967594;28;20114;-78
2023/08/03 02:58:55;;;;;;;7.55;2.33;;;;;;;16.37;100.00;99000.44;4969606;28;20043;-79
2023/08/03 03:01:33;;;;;;;9.55;2.72;;;;;;;16.36;100.00;99001.41;4965446;28;20518;-80
2023/08/03 03:04:00;;;;;;;9.18;2.58;;;;;;;16.37;100.00;99002.28;4980785;28;20129;-80
2023/08/03 03:06:29;;;;;;;9.15;2.50;;;;;;;16.37;100.00;99004.94;4981031;28;20043;-80
2023/08/03 03:08:56;;;;;;;9.30;2.95;;;;;;;16.39;100.00;99018.94;4963779;28;20047;-80
2023/08/03 03:11:23;;;;;;;12.27;2.85;;;;;;;16.39;100.00;99017.13;4980641;28;20417;-80
2023/08/03 03:13:51;;;;;;;12.60;3.70;;;;;;;16.41;100.00;99017.84;4965838;28;20153;-80
2023/08/03 03:16:25;;;;;;;11.80;3.35;;;;;;;16.41;100.00;99023.16;4971580;28;20043;-80
2023/08/03 03:18:55;;;;;;;16.25;3.13;;;;;;;16.44;100.00;99030.03;4965302;28;20058;-80
2023/08/03 03:21:24;;;;;;;10.80;2.72;;;;;;;16.44;100.00;99016.75;4946490;28;20087;-80
2023/08/03 03:23:52;;;;;;;9.77;3.10;;;;;;;16.47;100.00;99016.50;4945857;28;20051;-78
2023/08/03 03:26:20;;;;;;;11.45;3.17;;;;;;;16.49;100.00;99024.34;4979309;28;20053;-78
2023/08/03 03:28:47;;;;;;;11.80;3.17;;;;;;;16.45;100.00;99013.94;4967959;28;20660;-80
2023/08/03 03:31:20;;;;;;;12.20;3.43;;;;;;;16.40;100.00;99004.66;4976022;28;20043;-80
2023/08/03 03:33:49;;;;;;;9.45;3.30;;;;;;;16.37;100.00;99010.25;4966422;28;20295;-80
2023/08/03 03:36:17;;;;;;;12.20;3.30;;;;;;;16.35;100.00;99014.84;4962202;28;20054;-79
2023/08/03 03:38:44;;;;;;;12.85;2.88;;;;;;;16.32;100.00;99007.97;4964522;28;20042;-78
2023/08/03 03:41:12;;;;;;;9.65;2.90;;;;;;;16.33;100.00;99008.81;4977937;28;20046;-80
2023/08/03 03:43:42;;;;;;;9.65;2.88;;;;;;;16.30;100.00;99009.91;4949828;28;20046;-79
2023/08/03 03:46:09;;;;;;;10.82;3.03;;;;;;;16.32;100.00;99017.75;4966133;28;20050;-79
2023/08/03 03:48:38;;;;;;;9.63;2.65;;;;;;;16.32;100.00;99020.41;4983226;28;20058;-80
2023/08/03 03:51:05;;;;;;;11.32;2.92;;;;;;;16.30;100.00;99034.69;4967183;28;20074;-79
2023/08/03 03:53:32;;;;;;;10.02;3.10;;;;;;;16.33;100.00;99030.09;4983176;28;20043;-80
2023/08/03 03:56:06;;;;;;;10.00;2.90;;;;;;;16.33;100.00;99030.09;4958503;28;20418;-79
2023/08/03 03:58:33;;;;;;;9.10;2.63;;;;;;;16.31;100.00;99040.84;4982254;28;20043;-81
2023/08/03 04:01:00;;;;;;;7.22;2.72;;;;;;;16.30;100.00;99044.47;4980286;28;20434;-81
2023/08/03 04:03:27;;;;;;;10.55;2.90;;;;;;;16.30;100.00;99039.16;4967497;28;20604;-84
2023/08/03 04:06:00;;;;;;;9.23;2.88;;;;;;;16.29;100.00;99050.78;4965254;28;20051;-83
2023/08/03 04:08:27;;;;;;;7.47;2.00;;;;;;;16.30;100.00;99060.44;4967174;28;20133;-84
2023/08/03 04:10:54;;;;;;;6.72;2.30;;;;;;;16.28;100.00;99055.22;4968153;28;20042;-81
2023/08/03 04:13:21;;;;;;;7.95;2.03;;;;;;;16.27;100.00;99058.88;4968696;28;20126;-82
2023/08/03 04:15:48;;;;;;;6.65;2.40;;;;;;;16.29;100.00;99062.25;4965812;28;20043;-82
2023/08/03 04:18:16;;;;;;;6.22;2.00;;;;;;;16.29;100.00;99072.88;4964379;28;20075;-82
2023/08/03 04:20:43;;;;;;;9.30;2.33;;;;;;;16.29;100.00;99072.03;4940108;28;20043;-82
2023/08/03 04:23:10;;;;;;;7.35;2.15;;;;;;;16.28;100.00;99080.97;4963788;28;20117;-84
2023/08/03 04:25:38;;;;;;;9.73;2.33;;;;;;;16.26;100.00;99074.94;4965417;28;20042;-82
2023/08/03 04:28:13;;;;;;;7.15;2.40;;;;;;;16.23;100.00;99085.81;4956856;28;20126;-84
2023/08/03 04:30:41;;;;;;;5.72;2.10;;;;;;;16.21;100.00;99083.28;4982944;28;20051;-81
2023/08/03 04:33:08;;;;;;;8.80;2.40;;;;;;;16.21;100.00;99093.09;4967278;28;20046;-81
2023/08/03 04:35:37;;;;;;;6.82;2.45;;;;;;;16.19;100.00;99098.53;4966471;28;20039;-81
2023/08/03 04:38:11;;;;;;;5.70;2.08;;;;;;;16.18;100.00;99099.50;4963127;28;20051;-81
2023/08/03 04:40:43;;;;;;;7.53;1.80;;;;;;;16.17;100.00;99105.81;4969561;28;20706;-82
2023/08/03 04:43:12;;;;;;;4.97;1.73;;;;;;;16.21;100.00;99115.19;4970315;28;20046;-80
2023/08/03 04:45:40;;;;;;;4.50;1.73;;;;;;;16.19;100.00;99122.44;4971612;28;20046;-81
2023/08/03 04:48:11;;;;;;;6.13;2.00;;;;;;;16.18;100.00;99119.94;4983939;28;20740;-80
2023/08/03 04:50:39;;;;;;;7.57;2.35;;;;;;;16.17;100.00;99121.75;4969866;28;20114;-78
2023/08/03 04:53:06;;;;;;;6.38;1.92;;;;;;;16.19;100.00;99126.94;4965636;28;20039;-79
2023/08/03 04:55:34;;;;;;;5.63;1.40;;;;;;;16.21;100.00;99130.31;4982649;28;20089;-80
2023/08/03 04:58:01;;;;;;;4.28;1.40;;;;;;;16.24;100.00;99127.38;4967188;28;20046;-79
2023/08/03 05:00:29;;;;;;;3.78;1.00;;;;;;;16.27;100.00;99133.31;4953656;28;20130;-80
2023/08/03 05:02:57;;;;;;;5.68;1.30;;;;;;;16.30;100.00;99132.22;4967626;28;20046;-79
2023/08/03 05:05:24;;;;;;;8.50;1.20;;;;;;;16.32;100.00;99134.75;4965791;28;20041;-76
2023/08/03 05:07:52;;;;;;;3.08;1.10;;;;;;;16.36;100.00;99144.19;4965738;28;20054;-73
2023/08/03 05:10:22;;;;;;;4.25;1.05;;;;;;;16.42;100.00;99146.31;4965545;28;20046;-74
2023/08/03 05:12:49;;;;;;;1.83;0.88;;;;;;;16.46;100.00;99153.94;4969866;28;20093;-73
2023/08/03 05:15:22;;;;;;;2.70;0.82;;;;;;;16.52;100.00;99149.09;4966669;28;20570;-73
2023/08/03 05:17:49;;;;;;;1.90;0.80;;;;;;;16.58;100.00;99157.38;4967086;28;20055;-73
2023/08/03 05:20:17;;;;;;;2.05;1.10;;;;;;;16.63;100.00;99156.16;4962624;28;20054;-73
2023/08/03 05:22:44;;;;;;;4.00;1.20;;;;;;;16.66;100.00;99169.22;4959664;28;20043;-73
2023/08/03 05:25:11;;;;;;;2.70;1.02;;;;;;;16.67;100.00;99174.41;4969955;28;20129;-73
2023/08/03 05:27:38;;;;;;;3.92;1.17;;;;;;;16.69;100.00;99172.47;4964703;28;20105;-73
2023/08/03 05:30:07;;;;;;;2.65;0.90;;;;;;;16.70;100.00;99170.66;4963259;28;20071;-71
2023/08/03 05:32:34;;;;;;;2.45;1.30;;;;;;;16.71;100.00;99182.97;4981492;28;20050;-70
2023/08/03 05:35:02;;;;;;;3.70;1.20;;;;;;;16.71;100.00;99182.97;4969534;28;20051;-70
2023/08/03 05:37:29;;;;;;;4.35;1.08;;;;;;;16.68;100.00;99188.59;4964335;28;20097;-71
2023/08/03 05:39:56;;;;;;;2.50;1.10;;;;;;;16.67;100.00;99192.22;4968862;28;21039;-71
2023/08/03 05:42:34;;;;;;;3.78;1.05;;;;;;;16.65;100.00;99197.63;4968052;28;20045;-71
2023/08/03 05:45:11;;;;;;;3.85;0.90;;;;;;;16.63;100.00;99196.94;4968277;28;20503;-71
2023/08/03 05:47:39;;;;;;;2.90;1.10;;;;;;;16.61;100.00;99205.03;4984238;28;20047;-72
2023/08/03 05:50:13;;;;;;;3.78;1.45;;;;;;;16.57;100.00;99210.72;4972617;28;20061;-71
2023/08/03 05:52:41;;;;;;;3.50;1.20;;;;;;;16.55;100.00;99212.66;4988736;28;20386;-71
2023/08/03 05:55:13;;;;;;;4.13;1.23;;;;;;;16.54;100.00;99211.81;4989497;28;20046;-71
2023/08/03 05:57:40;;;;;;;4.35;1.27;;;;;;;16.52;100.00;99229.72;4987239;28;20100;-71
2023/08/03 06:00:18;;;;;;;2.85;1.20;;;;;;;16.57;100.00;99232.88;4985630;28;20049;-71
2023/08/03 06:02:46;;;;;;;3.08;1.40;;;;;;;16.64;100.00;99235.00;4990090;28;21037;-70
2023/08/03 06:05:42;;;;;;;5.43;1.50;;;;;;;16.75;100.00;99230.50;4980349;28;20062;-70
2023/08/03 06:08:19;;;;;;;3.75;1.20;;;;;;;16.79;100.00;99241.72;4984310;28;20060;-70
2023/08/03 06:10:50;;;;;;;3.00;1.30;;;;;;;16.83;100.00;99253.00;4973153;28;20153;-70
2023/08/03 06:13:21;;;;;;;4.70;1.40;;;;;;;16.89;100.00;99248.00;4972930;28;20116;-70
2023/08/03 06:15:48;;;;;;;8.38;1.63;;;;;;;17.15;100.00;99246.84;4982041;28;20134;-70
2023/08/03 06:18:19;;;;;;;5.53;1.65;;;;;;;17.44;100.00;99248.91;4983832;28;20096;-71
2023/08/03 06:20:52;;;;;;;5.88;1.42;;;;;;;17.75;99.46;99260.44;4989129;28;20091;-72
2023/08/03 06:23:25;;;;;;;3.95;1.10;;;;;;;17.78;99.01;99267.31;4988851;28;20583;-73
2023/08/03 06:25:55;;;;;;;5.00;1.17;;;;;;;17.71;99.13;99272.34;4987144;28;20050;-70
2023/08/03 06:28:23;;;;;;;8.32;1.42;;;;;;;17.65;98.91;99267.53;4968831;28;20047;-70
2023/08/03 06:30:52;;;;;;;4.63;1.10;;;;;;;17.60;98.76;99273.25;4983289;28;20041;-70
2023/08/03 06:33:24;;;;;;;8.48;1.70;;;;;;;17.60;98.85;99277.75;4973719;28;20058;-70
2023/08/03 06:35:53;;;;;;;5.18;1.42;;;;;;;17.58;99.71;99272.53;4985252;28;20046;-70
2023/08/03 06:38:22;;;;;;;8.05;1.60;;;;;;;17.63;99.62;99285.47;4972538;28;20042;-70
2023/08/03 06:40:50;;;;;;;8.25;1.60;;;;;;;17.61;98.68;99301.59;4988355;28;20042;-70
2023/08/03 06:43:17;;;;;;;3.78;0.98;;;;;;;17.64;97.47;99293.34;4974604;28;20053;-70
2023/08/03 06:45:45;;;;;;;6.22;1.20;;;;;;;17.64;98.42;99292.50;4984596;28;20473;-70
2023/08/03 06:48:14;;;;;;;3.83;1.17;;;;;;;17.74;97.79;99304.06;4976356;28;20066;-74
2023/08/03 06:50:42;;;;;;;6.55;1.00;;;;;;;17.76;97.32;99301.25;4988519;28;20469;-74
2023/08/03 06:53:10;;;;;;;4.93;1.20;;;;;;;17.79;97.63;99306.34;4967484;28;20046;-74
2023/08/03 06:55:37;;;;;;;4.57;1.48;;;;;;;17.76;97.39;99304.78;4978715;28;20129;-74
2023/08/03 06:58:04;;;;;;;6.72;1.50;;;;;;;17.71;96.89;99309.63;4989865;28;20253;-74
2023/08/03 07:00:31;;;;;;;7.50;1.60;;;;;;;17.74;96.69;99325.38;4972424;28;20192;-74
2023/08/03 07:02:58;;;;;;;4.55;1.35;;;;;;;17.81;94.97;99320.38;4984186;28;20097;-74
2023/08/03 07:05:26;;;;;;;5.18;1.20;;;;;;;17.89;94.82;99323.22;4969883;28;20179;-74
2023/08/03 07:07:53;;;;;;;4.57;1.20;;;;;;;17.95;94.54;99328.06;4972633;28;20046;-73
2023/08/03 07:10:20;;;;;;;4.28;1.05;;;;;;;17.99;94.57;99336.66;4988764;28;20046;-75
2023/08/03 07:12:47;;;;;;;10.18;1.55;;;;;;;17.95;92.68;99336.06;4967548;28;20046;-74
2023/08/03 07:15:34;;;;;;;4.50;1.10;;;;;;;17.88;93.46;99336.69;4985545;28;20057;-74
2023/08/03 07:18:03;;;;;;;4.47;1.02;;;;;;;17.77;94.01;99341.13;4976729;28;20581;-74
2023/08/03 07:20:31;;;;;;;6.07;1.20;;;;;;;17.67;94.43;99346.38;4988397;28;20061;-73
2023/08/03 07:23:03;;;;;;;4.55;1.00;;;;;;;17.67;95.01;99346.38;4982249;28;20046;-73
2023/08/03 07:25:32;;;;;;;3.30;0.80;;;;;;;17.77;94.99;99346.44;4988831;28;20105;-73
2023/08/03 07:27:59;;;;;;;4.93;1.20;;;;;;;17.84;94.93;99350.28;4989639;28;20038;-73
2023/08/03 07:30:26;;;;;;;2.92;0.85;;;;;;;17.98;93.50;99357.13;4989736;28;20066;-73
2023/08/03 07:32:58;;;;;;;3.95;1.08;;;;;;;17.99;93.54;99358.81;4956465;28;20104;-74
2023/08/03 07:35:25;;;;;;;3.90;1.10;;;;;;;17.98;94.36;99365.13;4989012;28;20038;-73
2023/08/03 07:37:52;;;;;;;5.60;1.10;;;;;;;17.97;92.76;99365.28;4971920;28;20042;-73
2023/08/03 07:40:19;;;;;;;5.70;1.00;;;;;;;17.96;92.15;99372.41;4989241;28;20042;-74
2023/08/03 07:42:46;;;;;;;4.82;1.20;;;;;;;17.98;92.37;99378.47;4986633;28;20113;-74
2023/08/03 07:45:13;;;;;;;4.35;1.23;;;;;;;17.96;92.21;99371.53;4965020;28;20042;-74
2023/08/03 07:47:41;;;;;;;5.00;0.90;;;;;;;17.93;91.74;99372.66;4973192;28;20050;-73
2023/08/03 07:50:09;;;;;;;5.28;1.00;;;;;;;17.92;91.51;99368.31;4971056;28;20061;-73
2023/08/03 07:52:36;;;;;;;4.30;1.02;;;;;;;17.92;91.99;99376.28;4971390;28;20109;-74
2023/08/03 07:55:05;;;;;;;5.60;1.10;;;;;;;17.89;92.14;99379.22;4971236;28;20145;-73
2023/08/03 07:57:35;;;;;;;6.32;1.25;;;;;;;17.89;92.16;99387.22;4985627;28;20050;-73
2023/08/03 08:00:03;;;;;;;5.40;1.10;;;;;;;17.87;92.44;99391.00;4975849;28;20105;-74
2023/08/03 08:02:38;;;;;;;2.25;0.95;;;;;;;17.85;92.47;99389.28;4988786;28;20046;-74
2023/08/03 08:05:05;;;;;;;4.05;1.20;;;;;;;17.81;92.64;99395.00;4989136;28;20042;-73
2023/08/03 08:07:32;;;;;;;4.40;1.00;;;;;;;17.77;92.73;99396.22;4955501;28;20074;-73
2023/08/03 08:10:02;;;;;;;7.13;1.58;;;;;;;17.75;93.02;99409.69;4987870;28;20398;-73
2023/08/03 08:12:29;;;;;;;6.72;1.30;;;;;;;17.73;93.34;99416.97;4981612;28;20038;-73
2023/08/03 08:14:56;;;;;;;7.13;1.42;;;;;;;17.69;93.27;99419.03;4984399;28;20046;-74
2023/08/03 08:17:24;;;;;;;6.50;1.30;;;;;;;17.65;93.44;99419.41;4991916;28;20042;-74
2023/08/03 08:19:51;;;;;;;5.72;1.20;;;;;;;17.64;93.73;99420.38;4991479;28;20593;-74
2023/08/03 08:22:18;;;;;;;4.93;1.60;;;;;;;17.66;93.08;99429.94;4980388;28;20124;-74
2023/08/03 08:24:46;;;;;;;6.97;1.55;;;;;;;17.67;93.64;99431.63;4990978;28;20046;-73
2023/08/03 08:27:16;;;;;;;5.18;1.20;;;;;;;17.67;93.93;99436.97;4984324;28;20039;-73
2023/08/03 08:29:45;;;;;;;4.90;1.52;;;;;;;17.62;94.16;99441.84;4955587;28;20112;-73
2023/08/03 08:32:15;;;;;;;4.85;1.42;;;;;;;17.60;94.67;99433.13;4975705;28;20064;-74
2023/08/03 08:34:42;;;;;;;5.65;1.70;;;;;;;17.57;95.66;99449.34;4993973;28;20465;-74
2023/08/03 08:37:09;;;;;;;4.53;1.25;;;;;;;17.61;95.90;99439.28;4991506;28;20047;-74
2023/08/03 08:39:37;;;;;;;5.60;1.30;;;;;;;17.66;95.68;99447.75;4991944;28;20691;-73
2023/08/03 08:42:12;;;;;;;6.93;1.20;;;;;;;17.65;95.78;99464.72;4991981;28;20044;-74
2023/08/03 08:44:40;;;;;;;6.53;1.58;;;;;;;17.63;95.73;99464.00;4991593;28;20054;-74
2023/08/03 08:47:07;;;;;;;7.97;1.45;;;;;;;17.60;95.79;99464.28;4992059;28;20121;-73
2023/08/03 08:49:35;;;;;;;4.95;1.35;;;;;;;17.55;95.83;99472.59;4994157;28;20050;-74
2023/08/03 08:52:08;;;;;;;7.88;1.45;;;;;;;17.53;96.24;99471.91;4995133;28;20552;-74
2023/08/03 08:54:36;;;;;;;5.68;1.30;;;;;;;17.54;96.17;99476.28;4979728;28;20545;-74
2023/08/03 08:57:07;;;;;;;7.82;2.00;;;;;;;17.57;95.83;99486.66;4991057;28;20056;-74
2023/08/03 08:59:59;;;;;;;5.18;1.50;;;;;;;17.58;96.27;99491.00;4993935;28;20129;-73
2023/08/03 09:02:27;;;;;;;5.88;1.30;;;;;;;17.58;97.11;99500.84;4993656;28;20104;-74
2023/08/03 09:04:55;;;;;;;6.95;2.00;;;;;;;17.66;96.04;99501.06;4993411;28;20046;-75
2023/08/03 09:07:22;;;;;;;7.90;1.50;;;;;;;17.80;97.01;99502.59;4989398;28;20042;-74
2023/08/03 09:10:01;;;;;;;5.15;1.60;;;;;;;18.02;96.46;99504.34;4981409;28;20074;-74
2023/08/03 09:12:28;;;;;;;4.15;1.40;;;;;;;18.23;95.90;99508.88;4993930;28;20038;-73
2023/08/03 09:14:57;;;;;;;5.65;1.58;;;;;;;18.34;95.62;99508.00;4992809;28;20046;-73
2023/08/03 09:17:26;;;;;;;5.75;1.67;;;;;;;18.43;94.49;99524.06;4999012;28;20566;-73
2023/08/03 09:19:54;;;;;;;4.05;1.40;;;;;;;18.50;94.37;99531.56;4993859;28;20085;-73
2023/08/03 09:22:26;;;;;;;5.40;1.52;;;;;;;18.42;93.74;99542.88;4990298;28;20129;-73
2023/08/03 09:25:06;;;;;;;6.05;1.50;;;;;;;18.40;93.66;99545.69;4991428;28;20121;-73
2023/08/03 09:27:36;;;;;;;5.65;1.88;;;;;;;18.31;93.58;99551.78;4986011;28;20046;-73
2023/08/03 09:30:06;;;;;;;3.83;1.52;;;;;;;18.19;94.67;99555.47;4989428;28;20046;-74
2023/08/03 09:32:36;;;;;;;6.13;1.83;;;;;;;18.15;95.33;99566.38;4955003;28;20069;-75
2023/08/03 09:35:24;;;;;;;8.32;1.88;;;;;;;18.07;95.95;99566.16;4986027;28;20045;-75
2023/08/03 09:37:55;;;;;;;5.07;1.92;;;;;;;18.04;96.36;99570.91;4976929;28;20104;-75
2023/08/03 09:40:23;;;;;;;6.57;1.58;;;;;;;18.03;96.38;99585.22;4988426;28;20050;-76
2023/08/03 09:42:53;;;;;;;7.63;1.88;;;;;;;18.04;96.47;99584.25;4966519;28;20050;-74
2023/08/03 09:45:24;;;;;;;6.82;2.10;;;;;;;18.00;96.72;99587.16;4970965;28;20052;-74
2023/08/03 09:47:56;;;;;;;5.38;2.10;;;;;;;18.00;97.48;99595.16;4980284;28;20121;-74
2023/08/03 09:50:31;;;;;;;6.82;1.88;;;;;;;18.03;97.41;99604.72;4989392;28;20058;-75
2023/08/03 09:53:07;;;;;;;3.45;1.75;;;;;;;18.03;97.29;99610.03;4984410;28;20072;-75
2023/08/03 09:55:47;;;;;;;6.30;2.15;;;;;;;18.06;97.16;99622.31;4985994;28;20041;-74
2023/08/03 09:58:25;;;;;;;5.78;2.50;;;;;;;18.12;96.71;99627.97;4987874;28;20046;-75
2023/08/03 10:00:55;;;;;;;6.65;2.40;;;;;;;18.26;97.20;99632.16;4966605;28;20034;-75
2023/08/03 10:03:29;;;;;;;9.05;2.58;;;;;;;18.53;96.46;99635.34;4985874;28;20467;-75
2023/08/03 10:06:10;;;;;;;6.07;1.90;;;;;;;18.83;94.87;99637.28;4996134;28;20599;-75
2023/08/03 10:08:48;;;;;;;5.22;2.10;;;;;;;19.06;94.85;99643.38;4996122;28;20346;-75
2023/08/03 10:11:15;;;;;;;4.25;1.88;;;;;;;19.20;94.34;99650.22;4980523;28;20553;-75
2023/08/03 10:13:47;;;;;;;15.00;2.45;;;;;;;19.41;93.17;99654.69;4979886;28;20069;-74
2023/08/03 10:16:16;;;;;;;5.72;2.20;;;;;;;19.70;90.69;99659.31;4992381;28;20050;-74
2023/08/03 10:18:45;;;;;;;6.10;2.15;;;;;;;20.05;89.81;99663.44;4979147;28;20050;-74
2023/08/03 10:21:16;;;;;;;6.38;2.03;;;;;;;20.34;89.63;99670.66;4989025;28;20030;-74
2023/08/03 10:24:13;;;;;;;6.80;2.00;;;;;;;20.56;86.91;99674.09;4989742;28;20030;-75
2023/08/03 10:26:42;;;;;;;6.38;2.33;;;;;;;20.83;86.33;99675.25;4989833;28;20038;-75
2023/08/03 10:29:10;;;;;;;5.68;1.83;;;;;;;21.02;84.76;99672.53;4986271;28;20393;-75
2023/08/03 10:31:53;;;;;;;5.20;2.00;;;;;;;21.24;83.88;99679.44;4988679;28;20034;-75
2023/08/03 10:34:28;;;;;;;5.22;1.63;;;;;;;21.33;81.42;99676.88;4957922;28;20581;-75
2023/08/03 10:36:57;;;;;;;5.05;2.08;;;;;;;21.42;82.55;99682.19;4964476;28;20050;-74
2023/08/03 10:39:53;;;;;;;8.95;2.03;;;;;;;21.71;82.66;99683.16;4974413;28;20066;-74
2023/08/03 10:42:34;;;;;;;6.63;2.33;;;;;;;21.73;81.20;99686.53;4979076;28;20054;-74
2023/08/03 10:45:21;;;;;;;7.20;1.92;;;;;;;21.92;80.61;99685.63;4966390;28;20078;-75
2023/08/03 10:47:49;;;;;;;6.90;1.92;;;;;;;21.92;80.53;99687.44;4974512;28;20069;-75
2023/08/03 10:50:17;;;;;;;6.57;1.90;;;;;;;22.01;80.84;99695.44;4979937;28;20055;-74
2023/08/03 10:52:45;;;;;;;6.72;2.17;;;;;;;22.31;79.59;99692.59;4976596;28;20046;-75
2023/08/03 10:55:24;;;;;;;6.22;2.00;;;;;;;22.64;78.17;99698.34;4968001;28;20081;-73
2023/08/03 10:57:58;;;;;;;7.03;2.00;;;;;;;22.72;78.33;99702.97;4985719;28;20053;-73
2023/08/03 11:00:25;;;;;;;5.10;1.50;;;;;;;22.53;77.08;99718.22;4987892;28;20100;-72
2023/08/03 11:02:52;;;;;;;7.75;1.80;;;;;;;22.42;76.97;99716.56;4987916;28;20050;-75
2023/08/03 11:05:19;;;;;;;6.22;1.70;;;;;;;22.43;74.70;99718.28;4982331;28;20511;-74
2023/08/03 11:07:49;;;;;;;11.07;2.35;;;;;;;22.46;75.11;99715.28;4980275;28;20038;-75
2023/08/03 11:10:16;;;;;;;5.18;1.83;;;;;;;22.40;75.24;99710.50;4984433;28;20042;-74
2023/08/03 11:12:46;;;;;;;6.85;1.90;;;;;;;22.29;75.26;99714.22;4986386;28;20213;-73
2023/08/03 11:15:17;;;;;;;5.50;1.67;;;;;;;22.05;75.29;99719.28;4988957;28;20054;-74
2023/08/03 11:17:51;;;;;;;7.13;1.35;;;;;;;21.81;76.24;99732.22;4982185;28;20435;-74
2023/08/03 11:20:19;;;;;;;8.70;1.80;;;;;;;21.97;76.23;99738.81;4996170;28;20046;-74
2023/08/03 11:22:47;;;;;;;4.53;1.40;;;;;;;22.28;74.89;99735.84;4965132;28;20129;-74
2023/08/03 11:25:19;;;;;;;10.30;2.30;;;;;;;22.62;74.04;99749.53;4988020;28;20064;-73
2023/08/03 11:27:47;;;;;;;4.85;1.67;;;;;;;22.83;72.50;99747.53;4987064;28;20497;-74
2023/08/03 11:30:20;;;;;;;9.95;2.00;;;;;;;22.99;72.84;99771.03;4987782;28;20045;-73
2023/08/03 11:32:47;;;;;;;6.50;1.48;;;;;;;23.29;71.49;99777.06;4988027;28;20690;-73
2023/08/03 11:35:14;;;;;;;4.55;1.38;;;;;;;23.52;70.03;99789.00;4984891;28;20527;-74
2023/08/03 11:37:42;;;;;;;6.32;1.52;;;;;;;23.38;69.00;99793.09;5000324;28;20118;-74
2023/08/03 11:40:11;;;;;;;5.47;1.70;;;;;;;23.27;70.08;99782.59;4977128;28;20046;-74